Time;durP1;ratioP1;P1;durP2;ratioP2;P2;SDS_P1;SDS_P2;PMS_P1;PMS_P2;Temp;Humidity;BMP_temperature;BMP_pressure;BME280_temperature;BME280_humidity;BME280_pressure;Samples;Min_cycle;Max_cycle;Signal;HPM_P1;HPM_P2
2020/12/24 00:00:25;;;;;;;9.65;6.20;;;;;;;8.18;93.87;96077.56;1792514;80;21131;-89
2020/12/24 00:02:54;;;;;;;8.08;5.20;;;;;;;8.15;93.86;96072.81;1792557;80;21155;-90
2020/12/24 00:05:21;;;;;;;9.25;5.60;;;;;;;8.12;93.93;96064.92;1794702;79;21497;-89
2020/12/24 00:07:48;;;;;;;8.33;5.55;;;;;;;8.10;94.00;96073.65;1772709;81;21108;-89
2020/12/24 00:10:16;;;;;;;9.90;5.80;;;;;;;8.09;94.04;96069.44;1804120;79;21506;-89
2020/12/24 00:12:43;;;;;;;9.75;5.53;;;;;;;8.08;94.12;96057.30;1772647;81;21127;-89
2020/12/24 00:15:11;;;;;;;8.83;5.95;;;;;;;8.06;94.26;96061.28;1804079;79;21486;-89
2020/12/24 00:17:38;;;;;;;7.47;5.30;;;;;;;7.99;94.29;96058.41;1772814;81;21146;-89
2020/12/24 00:20:07;;;;;;;10.23;5.90;;;;;;;7.99;94.42;96058.94;1803761;79;21176;-89
2020/12/24 00:22:34;;;;;;;8.53;5.67;;;;;;;7.97;94.45;96047.88;1772580;81;21527;-89
2020/12/24 00:25:02;;;;;;;7.53;4.65;;;;;;;7.96;94.45;96056.86;1804074;79;21585;-89
2020/12/24 00:27:29;;;;;;;6.85;5.20;;;;;;;7.92;94.50;96059.80;1772575;81;21099;-90
2020/12/24 00:29:57;;;;;;;9.05;5.90;;;;;;;7.90;94.58;96058.75;1803965;79;21281;-89
2020/12/24 00:32:24;;;;;;;9.40;5.72;;;;;;;7.91;94.56;96054.27;1772686;81;21451;-90
2020/12/24 00:34:51;;;;;;;7.87;4.70;;;;;;;7.90;94.61;96050.83;1804125;79;21280;-91
2020/12/24 00:37:18;;;;;;;8.23;5.62;;;;;;;7.88;94.77;96029.21;1772574;81;21197;-90
2020/12/24 00:39:46;;;;;;;9.63;5.65;;;;;;;7.93;94.85;96054.77;1804046;79;21603;-89
2020/12/24 00:42:13;;;;;;;7.22;4.83;;;;;;;7.91;94.83;96052.41;1772644;81;21510;-90
2020/12/24 00:44:40;;;;;;;9.10;5.87;;;;;;;7.89;94.90;96045.84;1804083;79;21486;-89
2020/12/24 00:47:07;;;;;;;6.58;4.28;;;;;;;7.89;95.01;96044.52;1772632;81;21497;-89
2020/12/24 00:49:34;;;;;;;7.67;5.33;;;;;;;7.91;95.07;96027.88;1803652;79;21289;-90
2020/12/24 00:52:01;;;;;;;8.13;5.25;;;;;;;7.90;95.05;96046.09;1772736;80;21479;-91
2020/12/24 00:54:29;;;;;;;9.13;5.80;;;;;;;7.91;95.03;96047.66;1804035;79;21525;-89
2020/12/24 00:56:56;;;;;;;7.83;5.25;;;;;;;7.93;94.97;96029.16;1772696;80;21131;-89
2020/12/24 00:59:23;;;;;;;6.58;4.70;;;;;;;7.98;94.96;96036.25;1803955;79;21154;-90
2020/12/24 01:01:51;;;;;;;9.48;5.28;;;;;;;8.00;94.90;96043.36;1772617;80;21119;-89
2020/12/24 01:04:18;;;;;;;6.08;4.42;;;;;;;8.03;94.83;96038.88;1803979;79;21107;-90
2020/12/24 01:06:45;;;;;;;7.72;5.10;;;;;;;8.07;94.65;96035.93;1770624;81;21154;-89
2020/12/24 01:09:12;;;;;;;7.22;4.80;;;;;;;8.07;94.59;96046.48;1792445;80;21139;-89
2020/12/24 01:11:40;;;;;;;6.35;4.65;;;;;;;8.09;94.62;96023.77;1792671;80;21131;-90
2020/12/24 01:14:07;;;;;;;8.53;5.60;;;;;;;8.06;94.55;96016.41;1792514;80;21155;-89
2020/12/24 01:16:34;;;;;;;8.18;5.33;;;;;;;8.04;94.57;96015.37;1792567;80;21502;-90
2020/12/24 01:19:01;;;;;;;7.15;4.22;;;;;;;8.01;94.50;96006.13;1792311;79;21634;-89
2020/12/24 01:21:29;;;;;;;6.40;5.10;;;;;;;8.01;94.51;96004.02;1792638;80;21143;-90
2020/12/24 01:23:56;;;;;;;7.17;5.10;;;;;;;8.02;94.47;96001.63;1792419;80;21146;-89
2020/12/24 01:26:24;;;;;;;8.75;5.12;;;;;;;8.03;94.52;95996.11;1792469;79;21142;-89
2020/12/24 01:28:51;;;;;;;7.90;5.58;;;;;;;8.08;94.53;95996.58;1792364;79;21143;-89
2020/12/24 01:31:18;;;;;;;8.53;5.75;;;;;;;8.09;94.36;95997.38;1792757;79;21134;-90
2020/12/24 01:33:45;;;;;;;7.95;4.58;;;;;;;8.07;94.31;95984.45;1792418;80;21262;-89
2020/12/24 01:36:13;;;;;;;7.80;4.80;;;;;;;8.07;94.31;95999.50;1792553;79;21192;-90
2020/12/24 01:38:41;;;;;;;7.60;4.80;;;;;;;8.06;94.37;95997.40;1792517;79;21177;-89
2020/12/24 01:41:08;;;;;;;8.23;5.28;;;;;;;8.06;94.35;95993.44;1792707;80;21167;-90
2020/12/24 01:43:35;;;;;;;6.72;4.58;;;;;;;8.07;94.31;96002.93;1792443;80;21163;-90
2020/12/24 01:46:03;;;;;;;6.67;5.12;;;;;;;8.10;94.34;95983.11;1792452;80;21116;-89
2020/12/24 01:48:30;;;;;;;6.40;4.50;;;;;;;8.12;94.39;95999.45;1792380;79;21475;-91
2020/12/24 01:50:57;;;;;;;7.60;4.83;;;;;;;8.17;94.44;95994.15;1792045;79;21159;-90
2020/12/24 01:53:26;;;;;;;7.58;4.50;;;;;;;8.24;94.47;95982.72;1792419;79;21257;-90
2020/12/24 01:55:56;;;;;;;7.35;4.17;;;;;;;8.26;94.44;95966.05;1792731;80;21131;-90
2020/12/24 01:58:24;;;;;;;6.17;3.47;;;;;;;8.30;94.46;95970.52;1792549;80;21185;-89
2020/12/24 02:00:52;;;;;;;5.03;3.72;;;;;;;8.38;94.57;95963.86;1792671;80;21134;-90
2020/12/24 02:03:19;;;;;;;6.67;4.33;;;;;;;8.41;94.51;95945.34;1792327;80;21273;-90
2020/12/24 02:05:46;;;;;;;5.67;3.95;;;;;;;8.39;94.32;95954.08;1792372;79;21301;-89
2020/12/24 02:08:16;;;;;;;6.25;4.53;;;;;;;8.41;94.35;95958.02;1792535;79;21151;-89
2020/12/24 02:10:43;;;;;;;5.55;3.52;;;;;;;8.41;94.26;95948.77;1792527;80;21629;-91
2020/12/24 02:13:11;;;;;;;6.20;3.98;;;;;;;8.40;94.34;95942.45;1792523;80;21138;-90
2020/12/24 02:15:39;;;;;;;4.30;3.15;;;;;;;8.47;94.50;95947.66;1792520;79;21653;-90
2020/12/24 02:18:06;;;;;;;5.17;3.85;;;;;;;8.57;94.66;95958.64;1792322;79;21270;-90
2020/12/24 02:20:34;;;;;;;6.28;3.85;;;;;;;8.62;94.35;95940.11;1792038;79;21131;-89
2020/12/24 02:23:01;;;;;;;6.83;4.00;;;;;;;8.61;94.07;95948.56;1792563;79;21120;-89
2020/12/24 02:25:28;;;;;;;6.85;3.90;;;;;;;8.63;93.99;95948.28;1792410;79;21269;-90
2020/12/24 02:27:56;;;;;;;6.17;4.33;;;;;;;8.69;93.98;95943.18;1792371;79;21313;-89
2020/12/24 02:30:23;;;;;;;4.37;3.10;;;;;;;8.67;93.80;95936.61;1792424;79;21515;-90
2020/12/24 02:32:51;;;;;;;6.08;3.72;;;;;;;8.68;93.76;95929.72;1792712;79;21151;-90
2020/12/24 02:35:18;;;;;;;4.28;3.37;;;;;;;8.71;93.79;95922.55;1792385;79;21299;-90
2020/12/24 02:37:45;;;;;;;4.75;3.35;;;;;;;8.74;93.83;95918.03;1792372;79;21274;-90
2020/12/24 02:40:13;;;;;;;4.45;2.77;;;;;;;8.75;93.84;95922.78;1792450;80;21143;-90
2020/12/24 02:42:40;;;;;;;4.03;2.65;;;;;;;8.81;93.96;95926.39;1792464;79;21170;-89
2020/12/24 02:45:09;;;;;;;3.17;2.70;;;;;;;8.88;93.98;95925.52;1792354;80;21292;-92
2020/12/24 02:47:36;;;;;;;2.80;2.15;;;;;;;8.99;93.99;95900.26;1792488;79;21151;-89
2020/12/24 02:50:08;;;;;;;3.25;1.90;;;;;;;9.06;93.76;95886.95;1792234;79;21108;-89
2020/12/24 02:52:36;;;;;;;3.67;2.42;;;;;;;9.33;93.42;95901.39;1792628;80;21240;-90
2020/12/24 02:55:06;;;;;;;2.87;1.52;;;;;;;9.38;93.09;95884.89;1792375;79;21287;-89
2020/12/24 02:57:33;;;;;;;2.83;2.10;;;;;;;9.47;91.92;95879.75;1792597;80;21257;-89
2020/12/24 03:00:10;;;;;;;2.05;1.60;;;;;;;9.60;91.61;95892.78;1792286;79;21289;-89
2020/12/24 03:02:40;;;;;;;2.70;2.08;;;;;;;9.58;91.40;95889.10;1792425;80;21626;-89
2020/12/24 03:05:08;;;;;;;2.87;1.67;;;;;;;9.59;90.82;95892.53;1792151;80;21255;-89
2020/12/24 03:07:37;;;;;;;2.05;1.67;;;;;;;9.64;90.48;95901.16;1801257;79;21155;-89
2020/12/24 03:10:05;;;;;;;2.60;1.82;;;;;;;9.80;89.53;95908.31;1804423;79;21497;-88
2020/12/24 03:12:32;;;;;;;2.05;1.70;;;;;;;9.87;89.18;95922.52;1804338;79;21099;-89
2020/12/24 03:14:59;;;;;;;1.85;1.65;;;;;;;9.88;89.52;95924.88;1804353;79;21133;-89
2020/12/24 03:17:27;;;;;;;2.92;2.00;;;;;;;9.89;89.03;95919.05;1804156;79;21138;-89
2020/12/24 03:19:54;;;;;;;2.42;1.60;;;;;;;9.97;89.02;95931.06;1804431;79;21135;-89
2020/12/24 03:22:21;;;;;;;3.40;1.90;;;;;;;10.01;88.32;95924.13;1804604;79;21143;-89
2020/12/24 03:24:48;;;;;;;2.05;1.35;;;;;;;10.03;87.85;95911.38;1804665;79;21130;-89
2020/12/24 03:27:15;;;;;;;2.72;1.80;;;;;;;10.04;87.39;95915.59;1804577;79;21146;-88
2020/12/24 03:29:42;;;;;;;2.17;1.98;;;;;;;10.05;86.56;95937.03;1804475;79;21505;-89
2020/12/24 03:32:10;;;;;;;1.67;1.27;;;;;;;10.07;86.62;95936.73;1804906;79;21100;-89
2020/12/24 03:34:37;;;;;;;3.05;1.60;;;;;;;10.02;86.34;95936.29;1804570;79;21148;-88
2020/12/24 03:37:04;;;;;;;3.10;1.75;;;;;;;10.03;85.76;95959.05;1804859;79;21130;-88
2020/12/24 03:39:31;;;;;;;2.95;1.92;;;;;;;10.03;85.46;95948.98;1804714;79;21169;-88
2020/12/24 03:41:58;;;;;;;2.55;2.12;;;;;;;10.01;85.39;95950.61;1804575;79;21139;-89
2020/12/24 03:44:25;;;;;;;3.55;2.20;;;;;;;9.93;85.79;95930.08;1804580;79;21096;-89
2020/12/24 03:46:52;;;;;;;2.83;2.30;;;;;;;9.87;85.72;95929.92;1804581;79;21099;-88
2020/12/24 03:49:19;;;;;;;3.02;2.33;;;;;;;9.86;85.79;95933.65;1804495;79;21518;-89
2020/12/24 03:51:46;;;;;;;3.58;2.62;;;;;;;9.83;85.92;95934.20;1804606;79;21490;-89
2020/12/24 03:54:13;;;;;;;3.62;2.00;;;;;;;9.82;85.73;95924.70;1804651;79;21482;-88
2020/12/24 03:56:40;;;;;;;2.92;2.10;;;;;;;9.82;85.73;95926.80;1804622;79;21495;-89
2020/12/24 03:59:07;;;;;;;3.30;2.62;;;;;;;9.79;85.54;95939.84;1804476;79;21155;-89
2020/12/24 04:01:34;;;;;;;1.50;1.15;;;;;;;9.73;85.86;95934.39;1804574;79;21135;-89
2020/12/24 04:04:01;;;;;;;3.02;2.40;;;;;;;9.72;85.68;95934.92;1804620;79;21142;-89
2020/12/24 04:06:28;;;;;;;3.22;2.30;;;;;;;9.68;85.78;95929.94;1803913;79;21147;-89
2020/12/24 04:08:55;;;;;;;3.20;2.15;;;;;;;9.59;86.04;95922.42;1801162;80;21134;-88
2020/12/24 04:11:22;;;;;;;3.62;2.47;;;;;;;9.53;86.22;95919.05;1801281;79;21253;-88
2020/12/24 04:13:49;;;;;;;3.58;2.05;;;;;;;9.53;86.40;95920.38;1801211;80;21503;-89
2020/12/24 04:16:21;;;;;;;4.40;2.50;;;;;;;9.51;86.25;95917.23;1801180;79;21091;-89
2020/12/24 04:18:48;;;;;;;3.58;2.60;;;;;;;9.48;86.33;95919.14;1801222;79;21138;-89
2020/12/24 04:21:15;;;;;;;4.35;2.55;;;;;;;9.48;86.44;95907.77;1801132;79;21123;-89
2020/12/24 04:23:42;;;;;;;5.12;2.77;;;;;;;9.44;86.25;95884.30;1801495;80;21123;-89
2020/12/24 04:26:09;;;;;;;5.03;3.02;;;;;;;9.43;86.34;95910.48;1801100;80;21119;-89
2020/12/24 04:28:36;;;;;;;2.95;2.20;;;;;;;9.39;86.37;95898.91;1801110;80;21135;-89
2020/12/24 04:31:03;;;;;;;3.60;2.62;;;;;;;9.35;86.45;95919.86;1801146;79;21495;-89
2020/12/24 04:33:30;;;;;;;3.60;2.40;;;;;;;9.33;86.38;95910.11;1801305;79;21123;-88
2020/12/24 04:35:57;;;;;;;3.42;2.90;;;;;;;9.41;86.12;95910.77;1801218;80;21160;-88
2020/12/24 04:38:24;;;;;;;2.80;2.27;;;;;;;9.39;85.98;95901.02;1801118;79;21265;-89
2020/12/24 04:40:51;;;;;;;3.22;2.30;;;;;;;9.35;86.12;95896.59;1801106;79;21125;-88
2020/12/24 04:43:18;;;;;;;2.85;2.37;;;;;;;9.31;86.23;95901.67;1801142;79;21174;-89
2020/12/24 04:45:48;;;;;;;3.60;2.55;;;;;;;9.34;86.10;95895.81;1801120;80;21150;-88
2020/12/24 04:48:15;;;;;;;4.40;2.30;;;;;;;9.39;85.95;95894.94;1801386;80;21152;-88
2020/12/24 04:50:43;;;;;;;2.60;2.30;;;;;;;9.39;86.10;95887.78;1801223;80;21138;-88
2020/12/24 04:53:10;;;;;;;3.15;2.30;;;;;;;9.35;86.16;95884.69;1783388;80;21127;-89
2020/12/24 04:55:37;;;;;;;2.47;2.08;;;;;;;9.33;86.27;95876.26;1801114;80;21535;-88
2020/12/24 04:58:04;;;;;;;3.70;2.45;;;;;;;9.30;86.06;95867.05;1801218;79;21470;-89
2020/12/24 05:00:32;;;;;;;4.40;2.80;;;;;;;9.29;86.07;95858.86;1801131;79;21150;-89
2020/12/24 05:03:10;;;;;;;4.70;2.25;;;;;;;9.26;86.05;95879.79;1801114;80;21142;-89
2020/12/24 05:05:39;;;;;;;3.45;2.30;;;;;;;9.23;86.06;95881.94;1801233;79;21463;-89
2020/12/24 05:08:08;;;;;;;3.60;2.70;;;;;;;9.22;86.16;95885.66;1801635;80;21178;-90
2020/12/24 05:10:38;;;;;;;3.40;2.67;;;;;;;9.17;86.17;95891.03;1802169;80;21146;-89
2020/12/24 05:13:18;;;;;;;3.25;2.60;;;;;;;9.11;86.18;95890.05;1802139;80;21142;-90
2020/12/24 05:15:46;;;;;;;;;;;;;;;9.08;86.25;95881.38;1804669;79;21482;-90
2020/12/24 05:18:19;;;;;;;3.60;2.47;;;;;;;9.00;86.30;95881.47;1801934;79;20158;-89
2020/12/24 05:20:46;;;;;;;4.78;2.83;;;;;;;8.95;86.41;95874.94;1802050;80;21135;-89
2020/12/24 05:23:20;;;;;;;4.20;2.77;;;;;;;8.91;86.50;95883.98;1802053;80;21147;-89
2020/12/24 05:25:50;;;;;;;4.22;3.00;;;;;;;8.86;86.58;95881.92;1801906;79;21127;-90
2020/12/24 05:28:27;;;;;;;4.45;3.10;;;;;;;8.84;86.59;95893.31;1802098;79;21116;-89
2020/12/24 05:30:56;;;;;;;5.42;3.47;;;;;;;8.80;86.59;95887.82;1802180;79;21253;-89
2020/12/24 05:33:33;;;;;;;6.03;3.62;;;;;;;8.79;86.56;95896.82;1801984;79;21133;-89
2020/12/24 05:36:19;;;;;;;4.17;2.85;;;;;;;8.80;86.59;95899.71;1802177;79;21120;-89
2020/12/24 05:38:48;;;;;;;4.15;3.08;;;;;;;8.80;86.63;95906.31;1801869;80;21511;-89
2020/12/24 05:41:35;;;;;;;4.05;3.10;;;;;;;8.79;86.58;95906.61;1801956;80;21146;-89
2020/12/24 05:44:12;;;;;;;7.62;4.00;;;;;;;8.77;86.60;95904.25;1802015;80;21084;-89
2020/12/24 05:46:48;;;;;;;4.17;2.70;;;;;;;8.74;86.57;95905.36;1801940;80;21123;-89
2020/12/24 05:49:21;;;;;;;5.20;3.00;;;;;;;8.71;86.65;95900.08;1802158;79;21282;-89
2020/12/24 05:51:52;;;;;;;4.80;3.17;;;;;;;8.69;86.67;95888.22;1802003;79;21123;-89
2020/12/24 05:54:20;;;;;;;6.47;3.15;;;;;;;8.67;86.63;95892.47;1801627;79;21549;-89
2020/12/24 05:56:48;;;;;;;4.58;3.35;;;;;;;8.66;86.63;95892.76;1801938;79;21108;-90
2020/12/24 05:59:22;;;;;;;5.85;3.25;;;;;;;8.67;86.69;95899.08;1802113;80;21100;-89
2020/12/24 06:02:12;;;;;;;6.40;4.17;;;;;;;8.68;86.66;95892.72;1801893;79;21143;-89
2020/12/24 06:04:49;;;;;;;8.28;4.92;;;;;;;8.67;86.61;95880.58;1795745;79;21519;-90
2020/12/24 06:07:29;;;;;;;5.92;4.28;;;;;;;8.67;86.45;95881.12;1801904;79;21131;-90
2020/12/24 06:10:08;;;;;;;7.53;4.45;;;;;;;8.62;86.46;95881.98;1802141;79;21091;-89
2020/12/24 06:12:38;;;;;;;7.05;4.75;;;;;;;8.58;86.53;95880.95;1801930;80;21124;-89
2020/12/24 06:15:05;;;;;;;7.35;4.72;;;;;;;8.55;86.58;95881.52;1796650;79;21135;-89
2020/12/24 06:17:32;;;;;;;4.78;3.90;;;;;;;8.51;86.54;95873.92;1801888;80;21127;-89
2020/12/24 06:19:59;;;;;;;6.00;3.87;;;;;;;8.50;86.63;95888.20;1801952;79;21495;-89
2020/12/24 06:22:27;;;;;;;5.75;3.60;;;;;;;8.48;86.75;95886.38;1801825;79;21174;-90
2020/12/24 06:24:58;;;;;;;6.35;4.03;;;;;;;8.49;86.70;95878.70;1802039;79;21123;-90
2020/12/24 06:27:44;;;;;;;5.30;4.08;;;;;;;8.48;86.70;95890.34;1801909;79;21139;-89
2020/12/24 06:30:16;;;;;;;5.33;3.92;;;;;;;8.46;86.76;95899.08;1802062;79;21115;-90
2020/12/24 06:32:53;;;;;;;5.55;4.00;;;;;;;8.47;86.80;95898.02;1801768;79;21553;-90
2020/12/24 06:35:37;;;;;;;5.25;4.00;;;;;;;8.46;86.78;95896.44;1801962;80;21115;-90
2020/12/24 06:38:08;;;;;;;6.25;4.10;;;;;;;8.45;86.81;95902.80;1801799;79;21124;-90
2020/12/24 06:40:39;;;;;;;5.42;3.75;;;;;;;8.44;86.79;95896.70;1801723;79;21538;-90
2020/12/24 06:43:08;;;;;;;6.22;4.12;;;;;;;8.42;86.81;95902.02;1801951;80;21151;-90
2020/12/24 06:48:24;;;;;;;6.12;4.08;;;;;;;8.40;86.91;95898.33;1854451;77;22932;-89
2020/12/24 06:51:02;;;;;;;6.87;4.12;;;;;;;8.28;86.82;95900.01;1799042;80;21071;-89
2020/12/24 06:53:35;;;;;;;6.40;3.87;;;;;;;8.22;87.01;95886.63;1798924;80;21115;-89
2020/12/24 06:56:23;;;;;;;6.50;3.62;;;;;;;8.19;87.07;95887.72;1764040;81;21088;-90
2020/12/24 06:58:58;;;;;;;7.10;4.58;;;;;;;8.13;87.10;95892.25;1737451;81;21192;-89
2020/12/24 07:01:32;;;;;;;7.05;4.00;;;;;;;8.09;87.11;95897.06;1737187;83;21692;-90
2020/12/24 07:04:03;;;;;;;6.83;4.10;;;;;;;8.03;87.21;95898.44;1737422;83;21146;-89
2020/12/24 07:06:47;;;;;;;;;;;;;;;8.02;87.72;95896.86;1739862;83;21204;-89
2020/12/24 07:09:28;;;;;;;7.47;4.42;;;;;;;8.02;87.84;95907.42;1734836;81;20141;-90
2020/12/24 07:11:55;;;;;;;6.70;4.15;;;;;;;8.01;87.95;95904.50;1737311;83;21457;-89
2020/12/24 07:14:33;;;;;;;6.78;4.95;;;;;;;8.04;87.93;95904.50;1745647;82;21114;-89
2020/12/24 07:17:17;;;;;;;6.37;4.42;;;;;;;8.03;87.88;95897.65;1745737;82;21130;-90
2020/12/24 07:19:48;;;;;;;6.40;4.17;;;;;;;8.03;87.87;95902.39;1745488;81;21284;-89
2020/12/24 07:22:18;;;;;;;6.72;4.35;;;;;;;8.05;87.87;95908.71;1745691;82;21112;-90
2020/12/24 07:25:00;;;;;;;8.20;5.10;;;;;;;8.07;87.86;95913.71;1745848;82;21592;-89
2020/12/24 07:27:27;;;;;;;6.65;4.37;;;;;;;8.05;87.81;95915.31;1745593;82;21501;-90
2020/12/24 07:29:55;;;;;;;7.08;4.78;;;;;;;8.07;87.89;95913.17;1745605;81;21137;-89
2020/12/24 07:32:22;;;;;;;6.72;4.65;;;;;;;8.13;87.96;95902.81;1745576;82;21466;-89
2020/12/24 07:34:50;;;;;;;8.43;5.15;;;;;;;8.16;87.91;95914.66;1745683;82;21244;-89
2020/12/24 07:37:18;;;;;;;8.10;4.85;;;;;;;8.17;87.89;95913.09;1745586;81;21142;-89
2020/12/24 07:39:55;;;;;;;6.87;4.25;;;;;;;8.19;87.83;95905.67;1716272;82;21155;-90
2020/12/24 07:42:24;;;;;;;5.47;3.92;;;;;;;8.23;87.85;95909.85;1745790;82;21149;-90
2020/12/24 07:44:52;;;;;;;20.62;10.40;;;;;;;8.26;87.84;95902.15;1745804;82;21570;-90
2020/12/24 07:47:19;;;;;;;27.87;13.55;;;;;;;8.33;87.87;95904.47;1741712;81;21510;-89
2020/12/24 07:49:51;;;;;;;12.40;7.03;;;;;;;8.37;87.83;95896.80;1737599;81;21575;-89
2020/12/24 07:52:18;;;;;;;7.37;5.10;;;;;;;8.42;87.77;95905.97;1737503;82;21529;-89
2020/12/24 07:54:45;;;;;;;8.60;4.70;;;;;;;8.46;87.70;95907.79;1737825;83;21138;-90
2020/12/24 07:57:23;;;;;;;9.25;5.45;;;;;;;8.51;87.62;95911.69;1737842;83;21151;-90
2020/12/24 08:00:00;;;;;;;7.58;5.33;;;;;;;8.51;87.44;95913.01;1716999;84;21657;-89
2020/12/24 08:02:27;;;;;;;9.03;5.78;;;;;;;8.54;87.45;95911.66;1706316;84;21167;-89
2020/12/24 08:04:55;;;;;;;9.18;5.70;;;;;;;8.53;87.38;95911.41;1737154;83;21162;-89
2020/12/24 08:07:23;;;;;;;10.03;5.92;;;;;;;8.50;87.37;95908.01;1706320;84;21543;-88
2020/12/24 08:09:50;;;;;;;9.25;6.25;;;;;;;8.49;87.38;95903.80;1737160;81;21474;-89
2020/12/24 08:12:23;;;;;;;8.85;5.50;;;;;;;8.48;87.39;95901.69;1706257;84;21198;-89
2020/12/24 08:14:51;;;;;;;6.40;4.62;;;;;;;8.52;87.53;95900.05;1737149;83;21268;-89
2020/12/24 08:17:31;;;;;;;5.85;4.05;;;;;;;8.51;87.60;95895.84;1706375;84;21566;-89
2020/12/24 08:20:10;;;;;;;6.30;4.67;;;;;;;8.52;87.63;95897.94;1737324;81;21146;-89
2020/12/24 08:23:00;;;;;;;5.72;3.47;;;;;;;8.53;87.78;95896.88;1717132;84;21135;-89
2020/12/24 08:25:28;;;;;;;6.75;4.03;;;;;;;8.53;87.90;95900.30;1737473;82;21151;-89
2020/12/24 08:27:58;;;;;;;4.83;3.27;;;;;;;8.54;88.04;95901.09;1706218;83;21200;-90
2020/12/24 08:30:26;;;;;;;5.67;3.80;;;;;;;8.53;88.11;95899.52;1737472;83;21644;-89
2020/12/24 08:32:53;;;;;;;7.17;4.40;;;;;;;8.56;88.26;95904.23;1706480;84;21179;-89
2020/12/24 08:35:20;;;;;;;7.17;4.83;;;;;;;8.57;88.43;95896.55;1737229;83;21154;-89
2020/12/24 08:37:47;;;;;;;9.13;6.30;;;;;;;8.54;88.44;95893.95;1706221;83;21167;-90
2020/12/24 08:40:26;;;;;;;11.30;7.15;;;;;;;8.47;88.41;95888.23;1737171;83;21297;-89
2020/12/24 08:42:59;;;;;;;9.10;6.22;;;;;;;8.39;88.57;95889.38;1706525;84;21143;-89
2020/12/24 08:45:27;;;;;;;11.90;8.00;;;;;;;8.26;88.74;95895.55;1737275;83;21621;-89
2020/12/24 08:47:55;;;;;;;13.53;8.38;;;;;;;8.25;88.88;95894.51;1717807;82;21116;-89
2020/12/24 08:50:34;;;;;;;17.02;9.60;;;;;;;8.22;89.09;95892.44;1725312;83;21143;-88
2020/12/24 08:53:05;;;;;;;13.67;8.07;;;;;;;8.20;89.31;95891.94;1725428;83;21124;-88
2020/12/24 08:55:31;;;;;;;11.80;7.22;;;;;;;8.17;89.46;95892.50;1738179;82;21170;-89
2020/12/24 08:58:00;;;;;;;11.83;6.00;;;;;;;8.20;89.69;95880.84;1738105;81;21134;-88
2020/12/24 09:00:27;;;;;;;10.18;6.62;;;;;;;8.25;89.75;95878.66;1738217;82;21119;-89
2020/12/24 09:02:55;;;;;;;10.23;7.10;;;;;;;8.20;90.17;95868.17;1738124;82;21171;-88
2020/12/24 09:05:25;;;;;;;11.25;7.17;;;;;;;8.16;90.30;95877.16;1713284;82;21150;-88
2020/12/24 09:07:54;;;;;;;9.58;6.80;;;;;;;8.15;90.47;95872.95;1738170;81;21181;-88
2020/12/24 09:10:28;;;;;;;9.55;6.50;;;;;;;8.16;90.53;95869.78;1738173;82;21130;-89
2020/12/24 09:13:00;;;;;;;9.55;6.05;;;;;;;8.16;90.61;95863.96;1738397;82;21161;-89
2020/12/24 09:15:29;;;;;;;11.08;7.22;;;;;;;8.17;90.72;95862.14;1738198;82;21139;-89
2020/12/24 09:18:00;;;;;;;11.35;6.97;;;;;;;8.16;91.00;95861.32;1738194;81;21554;-89
2020/12/24 09:20:31;;;;;;;9.80;7.10;;;;;;;8.18;91.00;95859.75;1738208;82;21471;-89
2020/12/24 09:23:00;;;;;;;;;;;;;;;8.18;91.25;95857.11;1740693;82;21150;-89
2020/12/24 09:25:35;;;;;;;15.03;9.00;;;;;;;8.21;91.30;95851.27;1738404;82;20125;-89
2020/12/24 09:28:06;;;;;;;13.70;8.30;;;;;;;8.22;91.34;95855.47;1737152;81;21171;-89
2020/12/24 09:30:33;;;;;;;14.78;9.33;;;;;;;8.23;91.36;95851.23;1738299;82;21091;-90
2020/12/24 09:33:03;;;;;;;11.68;7.45;;;;;;;8.23;91.45;95849.13;1738160;82;21502;-88
2020/12/24 09:35:30;;;;;;;11.12;7.37;;;;;;;8.21;91.61;95849.41;1738462;82;21162;-89
2020/12/24 09:37:58;;;;;;;14.68;7.72;;;;;;;8.23;91.62;95845.95;1738226;81;21171;-90
2020/12/24 09:40:25;;;;;;;10.53;6.83;;;;;;;8.23;91.66;95856.51;1738251;82;21525;-89
2020/12/24 09:42:52;;;;;;;10.63;7.05;;;;;;;8.24;91.64;95850.16;1738177;82;21470;-89
2020/12/24 09:45:19;;;;;;;10.80;6.58;;;;;;;8.25;91.65;95853.05;1738172;82;21154;-89
2020/12/24 09:47:48;;;;;;;14.50;6.90;;;;;;;8.26;91.63;95857.26;1737544;81;21170;-89
2020/12/24 09:50:15;;;;;;;9.65;5.72;;;;;;;8.28;91.58;95859.61;1737106;82;21288;-89
2020/12/24 09:52:42;;;;;;;8.15;4.50;;;;;;;8.31;91.64;95859.86;1737110;82;21166;-89
2020/12/24 09:55:09;;;;;;;5.78;4.37;;;;;;;8.30;91.60;95858.80;1737060;83;21130;-89
2020/12/24 09:57:36;;;;;;;7.20;4.83;;;;;;;8.30;91.68;95860.11;1737086;82;21136;-89
2020/12/24 10:00:10;;;;;;;6.70;4.30;;;;;;;8.29;91.65;95860.66;1737003;81;21138;-89
2020/12/24 10:02:38;;;;;;;7.15;3.80;;;;;;;8.31;91.62;95858.54;1737111;83;21134;-89
2020/12/24 10:05:06;;;;;;;6.87;4.58;;;;;;;8.33;91.62;95857.72;1737164;83;21315;-89
2020/12/24 10:07:34;;;;;;;5.00;3.52;;;;;;;8.33;91.52;95859.05;1737042;82;21498;-89
2020/12/24 10:10:02;;;;;;;4.95;2.98;;;;;;;8.33;91.60;95859.05;1737020;81;21126;-89
2020/12/24 10:12:30;;;;;;;6.40;4.05;;;;;;;8.34;91.50;95858.53;1737256;83;21284;-90
2020/12/24 10:14:58;;;;;;;6.58;4.50;;;;;;;8.33;91.49;95847.16;1736989;83;21154;-90
2020/12/24 10:17:25;;;;;;;6.37;4.47;;;;;;;8.30;91.57;95849.55;1737255;82;21620;-90
2020/12/24 10:19:53;;;;;;;7.20;4.37;;;;;;;8.29;91.66;95845.34;1737121;81;21307;-90
2020/12/24 10:22:20;;;;;;;7.42;4.78;;;;;;;8.27;91.70;95844.84;1737079;82;21138;-90
2020/12/24 10:24:47;;;;;;;6.50;4.50;;;;;;;8.26;91.82;95845.91;1737119;83;21171;-91
2020/12/24 10:27:14;;;;;;;6.97;4.30;;;;;;;8.26;91.75;95845.91;1737058;83;21159;-90
2020/12/24 10:29:42;;;;;;;8.35;5.45;;;;;;;8.26;91.82;95842.73;1736936;81;21514;-90
2020/12/24 10:32:09;;;;;;;8.23;5.05;;;;;;;8.23;91.85;95840.66;1737171;83;21525;-90
2020/12/24 10:34:37;;;;;;;6.65;4.72;;;;;;;8.20;91.94;95841.23;1737039;83;21154;-91
2020/12/24 10:37:05;;;;;;;6.90;4.37;;;;;;;8.19;91.93;95837.02;1737374;82;21297;-90
2020/12/24 10:39:33;;;;;;;6.92;4.70;;;;;;;8.19;92.05;95827.00;1737117;81;21288;-90
2020/12/24 10:42:00;;;;;;;6.47;4.90;;;;;;;8.19;92.03;95827.78;1737071;82;21137;-90
2020/12/24 10:44:28;;;;;;;7.17;4.40;;;;;;;8.20;91.99;95827.25;1736990;83;21522;-89
2020/12/24 10:46:58;;;;;;;6.05;4.40;;;;;;;8.19;91.86;95821.18;1737056;82;21170;-89
2020/12/24 10:49:26;;;;;;;6.33;3.90;;;;;;;8.22;91.89;95824.57;1718476;82;21191;-89
2020/12/24 10:51:53;;;;;;;5.83;3.67;;;;;;;8.20;91.95;95831.99;1718423;83;21276;-89
2020/12/24 10:54:20;;;;;;;6.25;3.83;;;;;;;8.19;91.89;95823.82;1733774;83;21169;-89
2020/12/24 10:56:50;;;;;;;6.28;3.98;;;;;;;8.18;91.83;95821.47;1709028;84;21147;-89
2020/12/24 10:59:18;;;;;;;6.40;3.77;;;;;;;8.18;91.87;95824.89;1733709;81;21482;-90
2020/12/24 11:01:50;;;;;;;5.53;3.92;;;;;;;8.16;91.83;95830.96;1708755;84;21550;-89
2020/12/24 11:04:19;;;;;;;8.23;4.80;;;;;;;8.19;91.71;95823.82;1733737;83;21150;-89
2020/12/24 11:06:47;;;;;;;8.40;5.17;;;;;;;8.23;91.71;95820.86;1708789;84;21170;-90
2020/12/24 11:09:15;;;;;;;7.67;4.70;;;;;;;8.26;91.76;95816.86;1733653;81;21187;-90
2020/12/24 11:11:43;;;;;;;8.85;5.22;;;;;;;8.22;91.74;95815.33;1708822;84;21518;-89
2020/12/24 11:14:11;;;;;;;7.47;4.40;;;;;;;8.19;91.79;95820.39;1733852;83;21118;-90
2020/12/24 11:16:38;;;;;;;7.60;4.50;;;;;;;8.18;91.89;95810.91;1733671;83;21157;-90
2020/12/24 11:19:06;;;;;;;7.30;4.78;;;;;;;8.15;91.79;95806.95;1708578;82;21143;-90
2020/12/24 11:21:36;;;;;;;9.08;5.80;;;;;;;8.20;91.94;95805.59;1733694;83;21149;-90
2020/12/24 11:24:06;;;;;;;8.70;5.37;;;;;;;8.26;92.00;95802.34;1704665;84;21501;-90
2020/12/24 11:26:37;;;;;;;12.53;7.17;;;;;;;8.25;91.94;95798.92;1708871;84;21162;-89
2020/12/24 11:29:07;;;;;;;11.18;7.28;;;;;;;8.20;91.84;95799.52;1733251;81;21137;-89
2020/12/24 11:31:37;;;;;;;10.23;6.03;;;;;;;8.12;91.80;95791.68;1708901;84;21483;-89
2020/12/24 11:34:07;;;;;;;6.70;5.20;;;;;;;8.13;91.96;95790.61;1733915;83;21146;-89
2020/12/24 11:36:35;;;;;;;6.58;4.75;;;;;;;8.12;92.02;95789.04;1708933;84;21135;-90
2020/12/24 11:39:06;;;;;;;7.33;4.50;;;;;;;8.07;92.01;95783.05;1733758;81;21145;-90
2020/12/24 11:41:34;;;;;;;6.92;4.75;;;;;;;8.05;92.07;95783.33;1708896;84;21147;-90
2020/12/24 11:44:01;;;;;;;5.42;3.92;;;;;;;8.06;92.10;95771.70;1734097;83;21153;-90
2020/12/24 11:46:28;;;;;;;6.35;3.50;;;;;;;8.08;92.13;95774.06;1708786;84;21123;-89
2020/12/24 11:48:56;;;;;;;5.80;3.42;;;;;;;8.13;92.20;95773.98;1751023;80;21119;-90
2020/12/24 11:51:24;;;;;;;7.10;3.98;;;;;;;8.09;92.09;95767.17;1759146;81;21099;-90
2020/12/24 11:53:53;;;;;;;6.22;4.30;;;;;;;8.04;92.11;95762.75;1740090;82;21147;-91